Terminal Aerodrome Forecast
Issued by NWS

Current Version | Previous Version | Text Only | Print | Product List | Glossary On
Versions: 1 2 3 4 5 6 7 8 9 10 11 12 13
720
FTUS44 KCRP 140530
TAFLRD
TAF
KLRD 140530Z 1406/1506 14012KT P6SM FEW250
     FM141100 15005KT P6SM BKN008
     FM141600 16015G21KT P6SM BKN250
     FM142200 15011KT P6SM BKN250=

USA.gov is the U.S. government's official web portal to all federal, state and local government web resources and services.